<?xml version="1.0" encoding="UTF-8" standalone="no" ?>
<gpx xmlns="http://www.topografix.com/GPX/1/1" xmlns:xsi="http://www.w3.org/2001/XMLSchema-instance" xsi:schemaLocation="http://www.topografix.com/GPX/1/1 http://www.topografix.com/GPX/1/1/gpx.xsd" version="1.1" creator="VisuGPX - https://www.visugpx.com">
  <metadata>
    <name>Traversée des Rochers de Roquebrune</name>
    <desc><![CDATA[Traversée des arêtes des rochers de Roquebrune - Version sans equipement (il y a des chaines)
Suivre les marque bleues]]></desc>
  </metadata>
  <wpt lat="43.45085" lon="6.61703">
    <ele>26.87</ele>
    <name><![CDATA[0000427]]></name>
    <type><![CDATA[Point de départ]]></type>
  </wpt>
  <wpt lat="43.45083" lon="6.61681">
    <ele>31.1</ele>
    <name><![CDATA[0000428]]></name>
    <desc><![CDATA[<p><br /><h3>Nom: Segment: 1</h3><br />Heure de départ: 10:26 6 juin 2021<br/>Heure d'arrivée: 16:19 6 juin 2021<br/>Distance: 6km (05:52)<br/>Temps déplacement: 03:07<br/>Vitesse moyenne: 1,02 km/h<br/>Vitesse moyenne mouv.: 1,91 km/h<br/>Vitesse Max.: 7,31 km/h<br/>Altitude minimale: 20 m<br/>Altitude maximale: 374 m<br/>Vitesse de montée: 158,8 m/h<br/>Vitesse de descente: -111,8 m/h<br/>Gain d'altitude: 385 m<br/>Perte d'altitude: -381 m<br/>Temps de montée: 02:25<br/>Temps de descente: 03:24<br/></p>]]></desc>
    <type><![CDATA[Point d'arrivée]]></type>
  </wpt>
  <trk>
    <name><![CDATA[2021-06-06 10:26]]></name>
    <desc><![CDATA[<p>Heure de départ: 10:26 6 juin 2021<br/>Heure d'arrivée: 16:19 6 juin 2021<br/>Distance: 6 km (05:52)<br/>Temps déplacement: 03:07<br/>Vitesse moyenne: 1,02 km/h<br/>Vitesse moyenne mouv.: 1,91 km/h<br/>Vitesse Max.: 7,31 km/h<br/>Altitude minimale: 20 m<br/>Altitude maximale: 374 m<br/>Vitesse de montée: 167,8 m/h<br/>Vitesse de descente: -108,6 m/h<br/>Gain d'altitude: 383 m<br/>Perte d'altitude: -377 m<br/>Temps de montée: 02:17<br/>Temps de descente: 03:28<br/></p><hr align="center" width="480" style="height: 2px; width: 517px"/>]]></desc>
    <trkseg>
      <trkpt lat="43.45085" lon="6.61703">
        <ele>26.87</ele>
        <time>2021-06-06T08:26:39Z</time>
      </trkpt>
      <trkpt lat="43.45069" lon="6.61691">
        <ele>24.23</ele>
        <time>2021-06-06T08:26:59Z</time>
      </trkpt>
      <trkpt lat="43.45052" lon="6.61685">
        <ele>21.44</ele>
        <time>2021-06-06T08:28:06Z</time>
      </trkpt>
      <trkpt lat="43.45036" lon="6.61673">
        <ele>20.62</ele>
        <time>2021-06-06T08:28:32Z</time>
      </trkpt>
      <trkpt lat="43.4502" lon="6.61659">
        <ele>20.87</ele>
        <time>2021-06-06T08:29:05Z</time>
      </trkpt>
      <trkpt lat="43.45004" lon="6.61647">
        <ele>21.7</ele>
        <time>2021-06-06T08:29:39Z</time>
      </trkpt>
      <trkpt lat="43.44989" lon="6.61632">
        <ele>22.37</ele>
        <time>2021-06-06T08:30:02Z</time>
      </trkpt>
      <trkpt lat="43.44977" lon="6.61615">
        <ele>23.05</ele>
        <time>2021-06-06T08:30:24Z</time>
      </trkpt>
      <trkpt lat="43.44962" lon="6.61599">
        <ele>23.95</ele>
        <time>2021-06-06T08:30:49Z</time>
      </trkpt>
      <trkpt lat="43.44946" lon="6.61588">
        <ele>25.03</ele>
        <time>2021-06-06T08:31:19Z</time>
      </trkpt>
      <trkpt lat="43.4493" lon="6.61575">
        <ele>25.97</ele>
        <time>2021-06-06T08:31:42Z</time>
      </trkpt>
      <trkpt lat="43.44912" lon="6.6157">
        <ele>27.15</ele>
        <time>2021-06-06T08:32:09Z</time>
      </trkpt>
      <trkpt lat="43.44894" lon="6.61562">
        <ele>28.56</ele>
        <time>2021-06-06T08:32:42Z</time>
      </trkpt>
      <trkpt lat="43.44878" lon="6.61547">
        <ele>29.92</ele>
        <time>2021-06-06T08:33:17Z</time>
      </trkpt>
      <trkpt lat="43.44868" lon="6.61526">
        <ele>31.78</ele>
        <time>2021-06-06T08:33:45Z</time>
      </trkpt>
      <trkpt lat="43.44857" lon="6.61505">
        <ele>33.66</ele>
        <time>2021-06-06T08:34:11Z</time>
      </trkpt>
      <trkpt lat="43.4485" lon="6.61482">
        <ele>36.46</ele>
        <time>2021-06-06T08:34:40Z</time>
      </trkpt>
      <trkpt lat="43.44843" lon="6.61458">
        <ele>43.08</ele>
        <time>2021-06-06T08:35:35Z</time>
      </trkpt>
      <trkpt lat="43.44828" lon="6.61442">
        <ele>49.98</ele>
        <time>2021-06-06T08:36:34Z</time>
      </trkpt>
      <trkpt lat="43.44814" lon="6.61427">
        <ele>52.83</ele>
        <time>2021-06-06T08:36:59Z</time>
      </trkpt>
      <trkpt lat="43.44797" lon="6.61417">
        <ele>55.29</ele>
        <time>2021-06-06T08:37:21Z</time>
      </trkpt>
      <trkpt lat="43.44785" lon="6.61397">
        <ele>59.62</ele>
        <time>2021-06-06T08:37:55Z</time>
      </trkpt>
      <trkpt lat="43.44781" lon="6.61372">
        <ele>65.47</ele>
        <time>2021-06-06T08:38:35Z</time>
      </trkpt>
      <trkpt lat="43.4477" lon="6.61351">
        <ele>69.82</ele>
        <time>2021-06-06T08:39:05Z</time>
      </trkpt>
      <trkpt lat="43.4476" lon="6.6133">
        <ele>75.19</ele>
        <time>2021-06-06T08:39:40Z</time>
      </trkpt>
      <trkpt lat="43.44748" lon="6.61309">
        <ele>83.2</ele>
        <time>2021-06-06T08:40:47Z</time>
      </trkpt>
      <trkpt lat="43.44734" lon="6.61294">
        <ele>87.46</ele>
        <time>2021-06-06T08:41:16Z</time>
      </trkpt>
      <trkpt lat="43.44716" lon="6.61296">
        <ele>121.35</ele>
        <time>2021-06-06T08:47:45Z</time>
      </trkpt>
      <trkpt lat="43.44699" lon="6.61285">
        <ele>129.34</ele>
        <time>2021-06-06T08:49:35Z</time>
      </trkpt>
      <trkpt lat="43.44683" lon="6.61273">
        <ele>135.26</ele>
        <time>2021-06-06T08:51:13Z</time>
      </trkpt>
      <trkpt lat="43.44679" lon="6.61248">
        <ele>138.64</ele>
        <time>2021-06-06T08:52:18Z</time>
      </trkpt>
      <trkpt lat="43.44689" lon="6.61226">
        <ele>141.56</ele>
        <time>2021-06-06T08:53:27Z</time>
      </trkpt>
      <trkpt lat="43.44674" lon="6.61213">
        <ele>143.43</ele>
        <time>2021-06-06T08:54:05Z</time>
      </trkpt>
      <trkpt lat="43.44667" lon="6.61189">
        <ele>145.4</ele>
        <time>2021-06-06T08:54:44Z</time>
      </trkpt>
      <trkpt lat="43.44674" lon="6.61166">
        <ele>147.89</ele>
        <time>2021-06-06T08:55:26Z</time>
      </trkpt>
      <trkpt lat="43.44664" lon="6.61145">
        <ele>149.76</ele>
        <time>2021-06-06T08:55:54Z</time>
      </trkpt>
      <trkpt lat="43.44663" lon="6.6112">
        <ele>152.47</ele>
        <time>2021-06-06T08:56:29Z</time>
      </trkpt>
      <trkpt lat="43.44675" lon="6.61101">
        <ele>157.11</ele>
        <time>2021-06-06T08:57:18Z</time>
      </trkpt>
      <trkpt lat="43.44673" lon="6.61076">
        <ele>165.19</ele>
        <time>2021-06-06T08:59:00Z</time>
      </trkpt>
      <trkpt lat="43.44669" lon="6.61052">
        <ele>167.58</ele>
        <time>2021-06-06T08:59:25Z</time>
      </trkpt>
      <trkpt lat="43.44678" lon="6.6103">
        <ele>171.56</ele>
        <time>2021-06-06T09:00:13Z</time>
      </trkpt>
      <trkpt lat="43.44667" lon="6.61011">
        <ele>174.95</ele>
        <time>2021-06-06T09:01:08Z</time>
      </trkpt>
      <trkpt lat="43.44655" lon="6.60992">
        <ele>177.95</ele>
        <time>2021-06-06T09:01:47Z</time>
      </trkpt>
      <trkpt lat="43.44642" lon="6.60974">
        <ele>179.94</ele>
        <time>2021-06-06T09:02:16Z</time>
      </trkpt>
      <trkpt lat="43.44633" lon="6.60952">
        <ele>185.55</ele>
        <time>2021-06-06T09:03:53Z</time>
      </trkpt>
      <trkpt lat="43.44632" lon="6.60927">
        <ele>212.02</ele>
        <time>2021-06-06T09:07:44Z</time>
      </trkpt>
      <trkpt lat="43.44625" lon="6.60904">
        <ele>213.78</ele>
        <time>2021-06-06T09:08:35Z</time>
      </trkpt>
      <trkpt lat="43.44639" lon="6.60888">
        <ele>218.56</ele>
        <time>2021-06-06T09:10:22Z</time>
      </trkpt>
      <trkpt lat="43.44656" lon="6.60896">
        <ele>221.78</ele>
        <time>2021-06-06T09:11:34Z</time>
      </trkpt>
      <trkpt lat="43.44672" lon="6.60884">
        <ele>223.41</ele>
        <time>2021-06-06T09:12:28Z</time>
      </trkpt>
      <trkpt lat="43.44681" lon="6.60861">
        <ele>224.81</ele>
        <time>2021-06-06T09:13:09Z</time>
      </trkpt>
      <trkpt lat="43.44695" lon="6.60845">
        <ele>228.33</ele>
        <time>2021-06-06T09:14:28Z</time>
      </trkpt>
      <trkpt lat="43.44694" lon="6.6082">
        <ele>230.85</ele>
        <time>2021-06-06T09:15:21Z</time>
      </trkpt>
      <trkpt lat="43.44703" lon="6.60799">
        <ele>248.8</ele>
        <time>2021-06-06T09:19:09Z</time>
      </trkpt>
      <trkpt lat="43.44713" lon="6.60778">
        <ele>253.42</ele>
        <time>2021-06-06T09:19:43Z</time>
      </trkpt>
      <trkpt lat="43.44719" lon="6.60753">
        <ele>258.57</ele>
        <time>2021-06-06T09:21:10Z</time>
      </trkpt>
      <trkpt lat="43.44722" lon="6.60728">
        <ele>262.46</ele>
        <time>2021-06-06T09:21:53Z</time>
      </trkpt>
      <trkpt lat="43.44715" lon="6.60705">
        <ele>265.06</ele>
        <time>2021-06-06T09:22:28Z</time>
      </trkpt>
      <trkpt lat="43.44721" lon="6.60681">
        <ele>268.17</ele>
        <time>2021-06-06T09:23:31Z</time>
      </trkpt>
      <trkpt lat="43.44735" lon="6.60666">
        <ele>269.51</ele>
        <time>2021-06-06T09:24:00Z</time>
      </trkpt>
      <trkpt lat="43.44739" lon="6.6064">
        <ele>271.39</ele>
        <time>2021-06-06T09:25:10Z</time>
      </trkpt>
      <trkpt lat="43.44738" lon="6.60615">
        <ele>280.42</ele>
        <time>2021-06-06T09:29:30Z</time>
      </trkpt>
      <trkpt lat="43.44744" lon="6.60592">
        <ele>283.18</ele>
        <time>2021-06-06T09:31:00Z</time>
      </trkpt>
      <trkpt lat="43.4475" lon="6.60568">
        <ele>286.22</ele>
        <time>2021-06-06T09:32:44Z</time>
      </trkpt>
      <trkpt lat="43.44738" lon="6.6055">
        <ele>289.67</ele>
        <time>2021-06-06T09:35:37Z</time>
      </trkpt>
      <trkpt lat="43.44751" lon="6.60533">
        <ele>290.76</ele>
        <time>2021-06-06T09:36:20Z</time>
      </trkpt>
      <trkpt lat="43.44752" lon="6.60508">
        <ele>292.07</ele>
        <time>2021-06-06T09:37:00Z</time>
      </trkpt>
      <trkpt lat="43.44746" lon="6.60484">
        <ele>296.04</ele>
        <time>2021-06-06T09:40:36Z</time>
      </trkpt>
      <trkpt lat="43.44747" lon="6.60459">
        <ele>296.88</ele>
        <time>2021-06-06T09:42:14Z</time>
      </trkpt>
      <trkpt lat="43.44733" lon="6.60443">
        <ele>297.45</ele>
        <time>2021-06-06T09:44:35Z</time>
      </trkpt>
      <trkpt lat="43.44733" lon="6.60418">
        <ele>296.98</ele>
        <time>2021-06-06T09:46:45Z</time>
      </trkpt>
      <trkpt lat="43.44745" lon="6.60398">
        <ele>297.6</ele>
        <time>2021-06-06T09:48:50Z</time>
      </trkpt>
      <trkpt lat="43.4476" lon="6.60411">
        <ele>298.9</ele>
        <time>2021-06-06T09:52:22Z</time>
      </trkpt>
      <trkpt lat="43.44778" lon="6.60409">
        <ele>299.37</ele>
        <time>2021-06-06T09:53:39Z</time>
      </trkpt>
      <trkpt lat="43.44796" lon="6.60415">
        <ele>308.18</ele>
        <time>2021-06-06T09:55:33Z</time>
      </trkpt>
      <trkpt lat="43.44816" lon="6.60422">
        <ele>324.81</ele>
        <time>2021-06-06T09:57:39Z</time>
      </trkpt>
      <trkpt lat="43.4482" lon="6.60398">
        <ele>336.59</ele>
        <time>2021-06-06T09:59:16Z</time>
      </trkpt>
      <trkpt lat="43.44823" lon="6.60372">
        <ele>356.5</ele>
        <time>2021-06-06T10:02:06Z</time>
      </trkpt>
      <trkpt lat="43.44834" lon="6.60392">
        <ele>374.21</ele>
        <time>2021-06-06T10:14:24Z</time>
      </trkpt>
      <trkpt lat="43.4485" lon="6.60383">
        <ele>373.97</ele>
        <time>2021-06-06T10:15:30Z</time>
      </trkpt>
      <trkpt lat="43.44865" lon="6.60397">
        <ele>373.2</ele>
        <time>2021-06-06T10:17:54Z</time>
      </trkpt>
      <trkpt lat="43.44883" lon="6.60402">
        <ele>372.01</ele>
        <time>2021-06-06T10:21:07Z</time>
      </trkpt>
      <trkpt lat="43.44902" lon="6.60399">
        <ele>371.35</ele>
        <time>2021-06-06T10:21:49Z</time>
      </trkpt>
      <trkpt lat="43.4492" lon="6.604">
        <ele>370.63</ele>
        <time>2021-06-06T10:23:02Z</time>
      </trkpt>
      <trkpt lat="43.44938" lon="6.604">
        <ele>369.97</ele>
        <time>2021-06-06T10:28:00Z</time>
      </trkpt>
      <trkpt lat="43.44938" lon="6.60376">
        <ele>367.9</ele>
        <time>2021-06-06T11:19:31Z</time>
      </trkpt>
      <trkpt lat="43.44942" lon="6.60351">
        <ele>366.81</ele>
        <time>2021-06-06T11:23:37Z</time>
      </trkpt>
      <trkpt lat="43.44928" lon="6.60336">
        <ele>365.53</ele>
        <time>2021-06-06T11:25:19Z</time>
      </trkpt>
      <trkpt lat="43.44942" lon="6.60318">
        <ele>364.22</ele>
        <time>2021-06-06T11:26:22Z</time>
      </trkpt>
      <trkpt lat="43.44957" lon="6.60331">
        <ele>356.5</ele>
        <time>2021-06-06T11:30:14Z</time>
      </trkpt>
      <trkpt lat="43.44971" lon="6.60315">
        <ele>345.21</ele>
        <time>2021-06-06T11:36:02Z</time>
      </trkpt>
      <trkpt lat="43.44986" lon="6.603">
        <ele>343.96</ele>
        <time>2021-06-06T11:36:32Z</time>
      </trkpt>
      <trkpt lat="43.45004" lon="6.60292">
        <ele>342.1</ele>
        <time>2021-06-06T11:37:58Z</time>
      </trkpt>
      <trkpt lat="43.45017" lon="6.6031">
        <ele>341.56</ele>
        <time>2021-06-06T11:38:59Z</time>
      </trkpt>
      <trkpt lat="43.45035" lon="6.60308">
        <ele>341.6</ele>
        <time>2021-06-06T11:39:58Z</time>
      </trkpt>
      <trkpt lat="43.4505" lon="6.60294">
        <ele>342.03</ele>
        <time>2021-06-06T11:40:48Z</time>
      </trkpt>
      <trkpt lat="43.45067" lon="6.60284">
        <ele>342.64</ele>
        <time>2021-06-06T11:41:40Z</time>
      </trkpt>
      <trkpt lat="43.45063" lon="6.60259">
        <ele>342.63</ele>
        <time>2021-06-06T11:43:32Z</time>
      </trkpt>
      <trkpt lat="43.45061" lon="6.60235">
        <ele>342.44</ele>
        <time>2021-06-06T11:44:20Z</time>
      </trkpt>
      <trkpt lat="43.45056" lon="6.60211">
        <ele>341.98</ele>
        <time>2021-06-06T11:44:59Z</time>
      </trkpt>
      <trkpt lat="43.45054" lon="6.60185">
        <ele>341.01</ele>
        <time>2021-06-06T11:45:38Z</time>
      </trkpt>
      <trkpt lat="43.45051" lon="6.60161">
        <ele>340.03</ele>
        <time>2021-06-06T11:46:12Z</time>
      </trkpt>
      <trkpt lat="43.45056" lon="6.60137">
        <ele>336.56</ele>
        <time>2021-06-06T11:48:22Z</time>
      </trkpt>
      <trkpt lat="43.4507" lon="6.60121">
        <ele>335.13</ele>
        <time>2021-06-06T11:49:16Z</time>
      </trkpt>
      <trkpt lat="43.45075" lon="6.60097">
        <ele>333.55</ele>
        <time>2021-06-06T11:49:55Z</time>
      </trkpt>
      <trkpt lat="43.45082" lon="6.60073">
        <ele>331.85</ele>
        <time>2021-06-06T11:50:28Z</time>
      </trkpt>
      <trkpt lat="43.45084" lon="6.60048">
        <ele>330.07</ele>
        <time>2021-06-06T11:51:12Z</time>
      </trkpt>
      <trkpt lat="43.45084" lon="6.60023">
        <ele>328.68</ele>
        <time>2021-06-06T11:52:58Z</time>
      </trkpt>
      <trkpt lat="43.45083" lon="6.59998">
        <ele>328.34</ele>
        <time>2021-06-06T11:54:03Z</time>
      </trkpt>
      <trkpt lat="43.45073" lon="6.59977">
        <ele>328.07</ele>
        <time>2021-06-06T11:57:50Z</time>
      </trkpt>
      <trkpt lat="43.45078" lon="6.59953">
        <ele>346.29</ele>
        <time>2021-06-06T12:02:37Z</time>
      </trkpt>
      <trkpt lat="43.45094" lon="6.59938">
        <ele>351.54</ele>
        <time>2021-06-06T12:03:52Z</time>
      </trkpt>
      <trkpt lat="43.45092" lon="6.59913">
        <ele>353.46</ele>
        <time>2021-06-06T12:05:16Z</time>
      </trkpt>
      <trkpt lat="43.45089" lon="6.59889">
        <ele>353.26</ele>
        <time>2021-06-06T12:06:21Z</time>
      </trkpt>
      <trkpt lat="43.45092" lon="6.59863">
        <ele>352.48</ele>
        <time>2021-06-06T12:08:23Z</time>
      </trkpt>
      <trkpt lat="43.451" lon="6.5984">
        <ele>349.37</ele>
        <time>2021-06-06T12:18:51Z</time>
      </trkpt>
      <trkpt lat="43.45118" lon="6.59836">
        <ele>349.16</ele>
        <time>2021-06-06T12:19:25Z</time>
      </trkpt>
      <trkpt lat="43.45114" lon="6.59811">
        <ele>348.95</ele>
        <time>2021-06-06T12:20:01Z</time>
      </trkpt>
      <trkpt lat="43.45101" lon="6.59792">
        <ele>348.85</ele>
        <time>2021-06-06T12:20:30Z</time>
      </trkpt>
      <trkpt lat="43.45089" lon="6.59773">
        <ele>348.81</ele>
        <time>2021-06-06T12:21:03Z</time>
      </trkpt>
      <trkpt lat="43.45089" lon="6.59748">
        <ele>348.79</ele>
        <time>2021-06-06T12:21:46Z</time>
      </trkpt>
      <trkpt lat="43.45089" lon="6.59723">
        <ele>348.57</ele>
        <time>2021-06-06T12:22:37Z</time>
      </trkpt>
      <trkpt lat="43.45085" lon="6.59698">
        <ele>348.39</ele>
        <time>2021-06-06T12:23:10Z</time>
      </trkpt>
      <trkpt lat="43.45099" lon="6.59682">
        <ele>348.27</ele>
        <time>2021-06-06T12:23:30Z</time>
      </trkpt>
      <trkpt lat="43.45117" lon="6.59685">
        <ele>348.09</ele>
        <time>2021-06-06T12:24:00Z</time>
      </trkpt>
      <trkpt lat="43.45134" lon="6.59676">
        <ele>347.98</ele>
        <time>2021-06-06T12:24:17Z</time>
      </trkpt>
      <trkpt lat="43.45153" lon="6.59678">
        <ele>347.68</ele>
        <time>2021-06-06T12:24:55Z</time>
      </trkpt>
      <trkpt lat="43.45168" lon="6.59663">
        <ele>346.79</ele>
        <time>2021-06-06T12:26:18Z</time>
      </trkpt>
      <trkpt lat="43.45154" lon="6.59681">
        <ele>346.28</ele>
        <time>2021-06-06T12:27:02Z</time>
      </trkpt>
      <trkpt lat="43.45141" lon="6.59662">
        <ele>345.66</ele>
        <time>2021-06-06T12:28:02Z</time>
      </trkpt>
      <trkpt lat="43.45158" lon="6.59652">
        <ele>344.95</ele>
        <time>2021-06-06T12:29:26Z</time>
      </trkpt>
      <trkpt lat="43.45175" lon="6.59643">
        <ele>344.33</ele>
        <time>2021-06-06T12:30:11Z</time>
      </trkpt>
      <trkpt lat="43.45178" lon="6.59618">
        <ele>343.7</ele>
        <time>2021-06-06T12:31:02Z</time>
      </trkpt>
      <trkpt lat="43.45189" lon="6.59599">
        <ele>343.03</ele>
        <time>2021-06-06T12:31:50Z</time>
      </trkpt>
      <trkpt lat="43.45203" lon="6.59579">
        <ele>342.45</ele>
        <time>2021-06-06T12:32:47Z</time>
      </trkpt>
      <trkpt lat="43.45222" lon="6.5958">
        <ele>341.08</ele>
        <time>2021-06-06T12:33:51Z</time>
      </trkpt>
      <trkpt lat="43.45236" lon="6.59564">
        <ele>338.44</ele>
        <time>2021-06-06T12:35:01Z</time>
      </trkpt>
      <trkpt lat="43.45245" lon="6.59541">
        <ele>331.49</ele>
        <time>2021-06-06T12:36:12Z</time>
      </trkpt>
      <trkpt lat="43.45246" lon="6.59515">
        <ele>320.19</ele>
        <time>2021-06-06T12:37:19Z</time>
      </trkpt>
      <trkpt lat="43.45262" lon="6.59504">
        <ele>310.68</ele>
        <time>2021-06-06T12:38:08Z</time>
      </trkpt>
      <trkpt lat="43.45267" lon="6.5948">
        <ele>304.46</ele>
        <time>2021-06-06T12:38:56Z</time>
      </trkpt>
      <trkpt lat="43.45272" lon="6.59454">
        <ele>300.99</ele>
        <time>2021-06-06T12:39:15Z</time>
      </trkpt>
      <trkpt lat="43.45261" lon="6.59434">
        <ele>294.85</ele>
        <time>2021-06-06T12:39:40Z</time>
      </trkpt>
      <trkpt lat="43.45253" lon="6.59411">
        <ele>289.6</ele>
        <time>2021-06-06T12:40:00Z</time>
      </trkpt>
      <trkpt lat="43.4527" lon="6.59402">
        <ele>280.37</ele>
        <time>2021-06-06T12:40:32Z</time>
      </trkpt>
      <trkpt lat="43.45289" lon="6.59411">
        <ele>274.99</ele>
        <time>2021-06-06T12:40:56Z</time>
      </trkpt>
      <trkpt lat="43.45303" lon="6.59426">
        <ele>271.18</ele>
        <time>2021-06-06T12:41:16Z</time>
      </trkpt>
      <trkpt lat="43.45321" lon="6.59428">
        <ele>267.93</ele>
        <time>2021-06-06T12:41:35Z</time>
      </trkpt>
      <trkpt lat="43.45339" lon="6.5942">
        <ele>265.83</ele>
        <time>2021-06-06T12:41:53Z</time>
      </trkpt>
      <trkpt lat="43.45357" lon="6.59417">
        <ele>263.91</ele>
        <time>2021-06-06T12:42:12Z</time>
      </trkpt>
      <trkpt lat="43.45376" lon="6.59417">
        <ele>258.37</ele>
        <time>2021-06-06T12:43:46Z</time>
      </trkpt>
      <trkpt lat="43.45357" lon="6.59417">
        <ele>249.28</ele>
        <time>2021-06-06T12:46:59Z</time>
      </trkpt>
      <trkpt lat="43.4534" lon="6.59426">
        <ele>248.13</ele>
        <time>2021-06-06T12:47:41Z</time>
      </trkpt>
      <trkpt lat="43.4533" lon="6.59447">
        <ele>247.46</ele>
        <time>2021-06-06T12:48:11Z</time>
      </trkpt>
      <trkpt lat="43.45337" lon="6.59471">
        <ele>246.68</ele>
        <time>2021-06-06T12:48:48Z</time>
      </trkpt>
      <trkpt lat="43.45347" lon="6.59492">
        <ele>246.22</ele>
        <time>2021-06-06T12:49:13Z</time>
      </trkpt>
      <trkpt lat="43.45357" lon="6.59513">
        <ele>245.61</ele>
        <time>2021-06-06T12:49:51Z</time>
      </trkpt>
      <trkpt lat="43.4537" lon="6.59531">
        <ele>244.99</ele>
        <time>2021-06-06T12:50:20Z</time>
      </trkpt>
      <trkpt lat="43.45379" lon="6.59552">
        <ele>243.82</ele>
        <time>2021-06-06T12:50:57Z</time>
      </trkpt>
      <trkpt lat="43.45395" lon="6.59565">
        <ele>242.84</ele>
        <time>2021-06-06T12:51:18Z</time>
      </trkpt>
      <trkpt lat="43.45405" lon="6.59586">
        <ele>240.5</ele>
        <time>2021-06-06T12:51:54Z</time>
      </trkpt>
      <trkpt lat="43.45413" lon="6.59608">
        <ele>238.72</ele>
        <time>2021-06-06T12:52:17Z</time>
      </trkpt>
      <trkpt lat="43.45427" lon="6.59624">
        <ele>235.37</ele>
        <time>2021-06-06T12:53:05Z</time>
      </trkpt>
      <trkpt lat="43.45442" lon="6.59639">
        <ele>231.63</ele>
        <time>2021-06-06T12:53:54Z</time>
      </trkpt>
      <trkpt lat="43.45461" lon="6.59644">
        <ele>229.26</ele>
        <time>2021-06-06T12:54:19Z</time>
      </trkpt>
      <trkpt lat="43.45476" lon="6.59657">
        <ele>226.65</ele>
        <time>2021-06-06T12:54:43Z</time>
      </trkpt>
      <trkpt lat="43.45489" lon="6.59674">
        <ele>222.95</ele>
        <time>2021-06-06T12:55:24Z</time>
      </trkpt>
      <trkpt lat="43.45493" lon="6.59699">
        <ele>220.05</ele>
        <time>2021-06-06T12:56:04Z</time>
      </trkpt>
      <trkpt lat="43.45503" lon="6.59721">
        <ele>215.84</ele>
        <time>2021-06-06T12:56:53Z</time>
      </trkpt>
      <trkpt lat="43.45511" lon="6.59744">
        <ele>211.24</ele>
        <time>2021-06-06T12:57:31Z</time>
      </trkpt>
      <trkpt lat="43.45527" lon="6.59757">
        <ele>203.33</ele>
        <time>2021-06-06T12:58:33Z</time>
      </trkpt>
      <trkpt lat="43.45544" lon="6.59768">
        <ele>194.84</ele>
        <time>2021-06-06T12:59:33Z</time>
      </trkpt>
      <trkpt lat="43.45561" lon="6.59777">
        <ele>183.83</ele>
        <time>2021-06-06T13:00:32Z</time>
      </trkpt>
      <trkpt lat="43.45551" lon="6.59799">
        <ele>175.82</ele>
        <time>2021-06-06T13:01:14Z</time>
      </trkpt>
      <trkpt lat="43.45535" lon="6.5981">
        <ele>169.11</ele>
        <time>2021-06-06T13:02:04Z</time>
      </trkpt>
      <trkpt lat="43.45522" lon="6.59826">
        <ele>164.25</ele>
        <time>2021-06-06T13:02:53Z</time>
      </trkpt>
      <trkpt lat="43.45521" lon="6.59851">
        <ele>159.97</ele>
        <time>2021-06-06T13:04:04Z</time>
      </trkpt>
      <trkpt lat="43.45527" lon="6.59875">
        <ele>157.25</ele>
        <time>2021-06-06T13:04:51Z</time>
      </trkpt>
      <trkpt lat="43.45544" lon="6.59866">
        <ele>154.58</ele>
        <time>2021-06-06T13:05:32Z</time>
      </trkpt>
      <trkpt lat="43.45559" lon="6.5988">
        <ele>153.41</ele>
        <time>2021-06-06T13:05:47Z</time>
      </trkpt>
      <trkpt lat="43.45569" lon="6.59901">
        <ele>151.27</ele>
        <time>2021-06-06T13:06:14Z</time>
      </trkpt>
      <trkpt lat="43.45557" lon="6.5992">
        <ele>145.92</ele>
        <time>2021-06-06T13:08:21Z</time>
      </trkpt>
      <trkpt lat="43.45544" lon="6.59939">
        <ele>142.84</ele>
        <time>2021-06-06T13:10:31Z</time>
      </trkpt>
      <trkpt lat="43.45531" lon="6.59957">
        <ele>142.3</ele>
        <time>2021-06-06T13:11:06Z</time>
      </trkpt>
      <trkpt lat="43.45528" lon="6.59982">
        <ele>141.76</ele>
        <time>2021-06-06T13:11:55Z</time>
      </trkpt>
      <trkpt lat="43.45538" lon="6.60002">
        <ele>141.32</ele>
        <time>2021-06-06T13:12:28Z</time>
      </trkpt>
      <trkpt lat="43.4552" lon="6.60008">
        <ele>140.71</ele>
        <time>2021-06-06T13:13:24Z</time>
      </trkpt>
      <trkpt lat="43.45503" lon="6.60013">
        <ele>140.26</ele>
        <time>2021-06-06T13:14:07Z</time>
      </trkpt>
      <trkpt lat="43.45485" lon="6.60018">
        <ele>139.92</ele>
        <time>2021-06-06T13:14:47Z</time>
      </trkpt>
      <trkpt lat="43.45469" lon="6.60029">
        <ele>139.79</ele>
        <time>2021-06-06T13:15:16Z</time>
      </trkpt>
      <trkpt lat="43.45452" lon="6.60041">
        <ele>139.75</ele>
        <time>2021-06-06T13:15:58Z</time>
      </trkpt>
      <trkpt lat="43.45448" lon="6.60065">
        <ele>139.79</ele>
        <time>2021-06-06T13:17:10Z</time>
      </trkpt>
      <trkpt lat="43.45459" lon="6.60087">
        <ele>139.63</ele>
        <time>2021-06-06T13:18:31Z</time>
      </trkpt>
      <trkpt lat="43.45465" lon="6.60111">
        <ele>139.6</ele>
        <time>2021-06-06T13:19:19Z</time>
      </trkpt>
      <trkpt lat="43.45455" lon="6.60133">
        <ele>139.54</ele>
        <time>2021-06-06T13:19:43Z</time>
      </trkpt>
      <trkpt lat="43.45441" lon="6.60148">
        <ele>139.62</ele>
        <time>2021-06-06T13:20:09Z</time>
      </trkpt>
      <trkpt lat="43.45424" lon="6.60159">
        <ele>139.7</ele>
        <time>2021-06-06T13:20:51Z</time>
      </trkpt>
      <trkpt lat="43.45421" lon="6.60185">
        <ele>139.71</ele>
        <time>2021-06-06T13:21:29Z</time>
      </trkpt>
      <trkpt lat="43.45424" lon="6.6021">
        <ele>139.6</ele>
        <time>2021-06-06T13:22:31Z</time>
      </trkpt>
      <trkpt lat="43.45437" lon="6.60227">
        <ele>139.42</ele>
        <time>2021-06-06T13:23:11Z</time>
      </trkpt>
      <trkpt lat="43.4544" lon="6.60252">
        <ele>139.12</ele>
        <time>2021-06-06T13:25:45Z</time>
      </trkpt>
      <trkpt lat="43.45449" lon="6.60274">
        <ele>139.55</ele>
        <time>2021-06-06T13:26:34Z</time>
      </trkpt>
      <trkpt lat="43.45431" lon="6.60272">
        <ele>139.85</ele>
        <time>2021-06-06T13:28:34Z</time>
      </trkpt>
      <trkpt lat="43.45414" lon="6.60266">
        <ele>139.62</ele>
        <time>2021-06-06T13:29:28Z</time>
      </trkpt>
      <trkpt lat="43.45399" lon="6.60251">
        <ele>139.48</ele>
        <time>2021-06-06T13:29:58Z</time>
      </trkpt>
      <trkpt lat="43.45381" lon="6.60243">
        <ele>139.29</ele>
        <time>2021-06-06T13:30:44Z</time>
      </trkpt>
      <trkpt lat="43.45373" lon="6.60266">
        <ele>139.13</ele>
        <time>2021-06-06T13:31:56Z</time>
      </trkpt>
      <trkpt lat="43.45386" lon="6.60284">
        <ele>139.06</ele>
        <time>2021-06-06T13:32:19Z</time>
      </trkpt>
      <trkpt lat="43.45393" lon="6.60306">
        <ele>139.01</ele>
        <time>2021-06-06T13:33:14Z</time>
      </trkpt>
      <trkpt lat="43.45402" lon="6.60329">
        <ele>138.97</ele>
        <time>2021-06-06T13:33:42Z</time>
      </trkpt>
      <trkpt lat="43.4541" lon="6.60352">
        <ele>138.92</ele>
        <time>2021-06-06T13:34:13Z</time>
      </trkpt>
      <trkpt lat="43.45413" lon="6.60377">
        <ele>138.86</ele>
        <time>2021-06-06T13:34:41Z</time>
      </trkpt>
      <trkpt lat="43.45409" lon="6.60403">
        <ele>138.82</ele>
        <time>2021-06-06T13:35:10Z</time>
      </trkpt>
      <trkpt lat="43.45399" lon="6.60424">
        <ele>138.86</ele>
        <time>2021-06-06T13:35:37Z</time>
      </trkpt>
      <trkpt lat="43.45405" lon="6.60448">
        <ele>138.97</ele>
        <time>2021-06-06T13:36:14Z</time>
      </trkpt>
      <trkpt lat="43.454" lon="6.60471">
        <ele>139.06</ele>
        <time>2021-06-06T13:36:46Z</time>
      </trkpt>
      <trkpt lat="43.45386" lon="6.60488">
        <ele>139.18</ele>
        <time>2021-06-06T13:37:09Z</time>
      </trkpt>
      <trkpt lat="43.45376" lon="6.60509">
        <ele>140.32</ele>
        <time>2021-06-06T13:38:19Z</time>
      </trkpt>
      <trkpt lat="43.45357" lon="6.60513">
        <ele>141.12</ele>
        <time>2021-06-06T13:39:11Z</time>
      </trkpt>
      <trkpt lat="43.4534" lon="6.60521">
        <ele>141.94</ele>
        <time>2021-06-06T13:39:52Z</time>
      </trkpt>
      <trkpt lat="43.45342" lon="6.60547">
        <ele>145.9</ele>
        <time>2021-06-06T13:42:08Z</time>
      </trkpt>
      <trkpt lat="43.45332" lon="6.60567">
        <ele>150.68</ele>
        <time>2021-06-06T13:47:24Z</time>
      </trkpt>
      <trkpt lat="43.45323" lon="6.6059">
        <ele>149.43</ele>
        <time>2021-06-06T13:48:34Z</time>
      </trkpt>
      <trkpt lat="43.45336" lon="6.60607">
        <ele>148.31</ele>
        <time>2021-06-06T13:49:04Z</time>
      </trkpt>
      <trkpt lat="43.45321" lon="6.6062">
        <ele>146.6</ele>
        <time>2021-06-06T13:49:48Z</time>
      </trkpt>
      <trkpt lat="43.4531" lon="6.6064">
        <ele>144.87</ele>
        <time>2021-06-06T13:50:30Z</time>
      </trkpt>
      <trkpt lat="43.4531" lon="6.60666">
        <ele>144.01</ele>
        <time>2021-06-06T13:50:49Z</time>
      </trkpt>
      <trkpt lat="43.45313" lon="6.60693">
        <ele>142.73</ele>
        <time>2021-06-06T13:51:14Z</time>
      </trkpt>
      <trkpt lat="43.45303" lon="6.60714">
        <ele>141.48</ele>
        <time>2021-06-06T13:51:38Z</time>
      </trkpt>
      <trkpt lat="43.45301" lon="6.6074">
        <ele>140.11</ele>
        <time>2021-06-06T13:52:09Z</time>
      </trkpt>
      <trkpt lat="43.4529" lon="6.60759">
        <ele>139.06</ele>
        <time>2021-06-06T13:52:28Z</time>
      </trkpt>
      <trkpt lat="43.45277" lon="6.60778">
        <ele>138.14</ele>
        <time>2021-06-06T13:52:45Z</time>
      </trkpt>
      <trkpt lat="43.45261" lon="6.60789">
        <ele>136.48</ele>
        <time>2021-06-06T13:53:30Z</time>
      </trkpt>
      <trkpt lat="43.45242" lon="6.60793">
        <ele>135.39</ele>
        <time>2021-06-06T13:54:03Z</time>
      </trkpt>
      <trkpt lat="43.45224" lon="6.60795">
        <ele>134.49</ele>
        <time>2021-06-06T13:54:31Z</time>
      </trkpt>
      <trkpt lat="43.45207" lon="6.60804">
        <ele>132.65</ele>
        <time>2021-06-06T13:55:12Z</time>
      </trkpt>
      <trkpt lat="43.45189" lon="6.6081">
        <ele>131.64</ele>
        <time>2021-06-06T13:55:38Z</time>
      </trkpt>
      <trkpt lat="43.4519" lon="6.60835">
        <ele>130.65</ele>
        <time>2021-06-06T13:56:08Z</time>
      </trkpt>
      <trkpt lat="43.45189" lon="6.6086">
        <ele>129.32</ele>
        <time>2021-06-06T13:56:56Z</time>
      </trkpt>
      <trkpt lat="43.45194" lon="6.60884">
        <ele>128.34</ele>
        <time>2021-06-06T13:57:27Z</time>
      </trkpt>
      <trkpt lat="43.45203" lon="6.60907">
        <ele>127.58</ele>
        <time>2021-06-06T13:57:49Z</time>
      </trkpt>
      <trkpt lat="43.45197" lon="6.60931">
        <ele>126.34</ele>
        <time>2021-06-06T13:58:33Z</time>
      </trkpt>
      <trkpt lat="43.45179" lon="6.60924">
        <ele>124.93</ele>
        <time>2021-06-06T13:59:32Z</time>
      </trkpt>
      <trkpt lat="43.45164" lon="6.60911">
        <ele>121.86</ele>
        <time>2021-06-06T14:00:20Z</time>
      </trkpt>
      <trkpt lat="43.45176" lon="6.6093">
        <ele>116.13</ele>
        <time>2021-06-06T14:01:18Z</time>
      </trkpt>
      <trkpt lat="43.45194" lon="6.60938">
        <ele>111.48</ele>
        <time>2021-06-06T14:01:47Z</time>
      </trkpt>
      <trkpt lat="43.45209" lon="6.60953">
        <ele>108.37</ele>
        <time>2021-06-06T14:02:12Z</time>
      </trkpt>
      <trkpt lat="43.45222" lon="6.6097">
        <ele>106.05</ele>
        <time>2021-06-06T14:02:37Z</time>
      </trkpt>
      <trkpt lat="43.45233" lon="6.60991">
        <ele>100.18</ele>
        <time>2021-06-06T14:03:37Z</time>
      </trkpt>
      <trkpt lat="43.45247" lon="6.61007">
        <ele>97.12</ele>
        <time>2021-06-06T14:03:58Z</time>
      </trkpt>
      <trkpt lat="43.45256" lon="6.61029">
        <ele>92.09</ele>
        <time>2021-06-06T14:04:32Z</time>
      </trkpt>
      <trkpt lat="43.45272" lon="6.61042">
        <ele>88.14</ele>
        <time>2021-06-06T14:04:58Z</time>
      </trkpt>
      <trkpt lat="43.45284" lon="6.61062">
        <ele>84.61</ele>
        <time>2021-06-06T14:05:24Z</time>
      </trkpt>
      <trkpt lat="43.45299" lon="6.61075">
        <ele>81.27</ele>
        <time>2021-06-06T14:05:53Z</time>
      </trkpt>
      <trkpt lat="43.4531" lon="6.61095">
        <ele>78.15</ele>
        <time>2021-06-06T14:06:25Z</time>
      </trkpt>
      <trkpt lat="43.45325" lon="6.61111">
        <ele>75.48</ele>
        <time>2021-06-06T14:06:56Z</time>
      </trkpt>
      <trkpt lat="43.45335" lon="6.61132">
        <ele>73.72</ele>
        <time>2021-06-06T14:07:25Z</time>
      </trkpt>
      <trkpt lat="43.45342" lon="6.61155">
        <ele>72.4</ele>
        <time>2021-06-06T14:07:53Z</time>
      </trkpt>
      <trkpt lat="43.45353" lon="6.61176">
        <ele>71.49</ele>
        <time>2021-06-06T14:08:16Z</time>
      </trkpt>
      <trkpt lat="43.45365" lon="6.61197">
        <ele>70.49</ele>
        <time>2021-06-06T14:08:43Z</time>
      </trkpt>
      <trkpt lat="43.45378" lon="6.61214">
        <ele>69.67</ele>
        <time>2021-06-06T14:09:06Z</time>
      </trkpt>
      <trkpt lat="43.45389" lon="6.61235">
        <ele>68.86</ele>
        <time>2021-06-06T14:09:29Z</time>
      </trkpt>
      <trkpt lat="43.45396" lon="6.61259">
        <ele>68.03</ele>
        <time>2021-06-06T14:09:53Z</time>
      </trkpt>
      <trkpt lat="43.45387" lon="6.61281">
        <ele>66.26</ele>
        <time>2021-06-06T14:10:44Z</time>
      </trkpt>
      <trkpt lat="43.45369" lon="6.61277">
        <ele>65.41</ele>
        <time>2021-06-06T14:10:59Z</time>
      </trkpt>
      <trkpt lat="43.4535" lon="6.61275">
        <ele>63.71</ele>
        <time>2021-06-06T14:11:20Z</time>
      </trkpt>
      <trkpt lat="43.45332" lon="6.61277">
        <ele>61.36</ele>
        <time>2021-06-06T14:11:38Z</time>
      </trkpt>
      <trkpt lat="43.45316" lon="6.61292">
        <ele>58.75</ele>
        <time>2021-06-06T14:11:57Z</time>
      </trkpt>
      <trkpt lat="43.45305" lon="6.61313">
        <ele>56.03</ele>
        <time>2021-06-06T14:12:16Z</time>
      </trkpt>
      <trkpt lat="43.45297" lon="6.61336">
        <ele>53.08</ele>
        <time>2021-06-06T14:12:39Z</time>
      </trkpt>
      <trkpt lat="43.45286" lon="6.61358">
        <ele>51.14</ele>
        <time>2021-06-06T14:12:54Z</time>
      </trkpt>
      <trkpt lat="43.45269" lon="6.61365">
        <ele>48.93</ele>
        <time>2021-06-06T14:13:12Z</time>
      </trkpt>
      <trkpt lat="43.45253" lon="6.61381">
        <ele>46.58</ele>
        <time>2021-06-06T14:13:33Z</time>
      </trkpt>
      <trkpt lat="43.45249" lon="6.61406">
        <ele>44.91</ele>
        <time>2021-06-06T14:13:49Z</time>
      </trkpt>
      <trkpt lat="43.45246" lon="6.61432">
        <ele>43.55</ele>
        <time>2021-06-06T14:14:03Z</time>
      </trkpt>
      <trkpt lat="43.45235" lon="6.61453">
        <ele>41.95</ele>
        <time>2021-06-06T14:14:22Z</time>
      </trkpt>
      <trkpt lat="43.45219" lon="6.61465">
        <ele>40.32</ele>
        <time>2021-06-06T14:14:43Z</time>
      </trkpt>
      <trkpt lat="43.45202" lon="6.61477">
        <ele>39.17</ele>
        <time>2021-06-06T14:14:59Z</time>
      </trkpt>
      <trkpt lat="43.45184" lon="6.61485">
        <ele>38.11</ele>
        <time>2021-06-06T14:15:16Z</time>
      </trkpt>
      <trkpt lat="43.45165" lon="6.61491">
        <ele>37.19</ele>
        <time>2021-06-06T14:15:31Z</time>
      </trkpt>
      <trkpt lat="43.45148" lon="6.61498">
        <ele>36.66</ele>
        <time>2021-06-06T14:15:41Z</time>
      </trkpt>
      <trkpt lat="43.45129" lon="6.61503">
        <ele>35.66</ele>
        <time>2021-06-06T14:16:07Z</time>
      </trkpt>
      <trkpt lat="43.45113" lon="6.61516">
        <ele>35</ele>
        <time>2021-06-06T14:16:27Z</time>
      </trkpt>
      <trkpt lat="43.45094" lon="6.61516">
        <ele>34.44</ele>
        <time>2021-06-06T14:16:44Z</time>
      </trkpt>
      <trkpt lat="43.45076" lon="6.61511">
        <ele>33.9</ele>
        <time>2021-06-06T14:17:00Z</time>
      </trkpt>
      <trkpt lat="43.45058" lon="6.61516">
        <ele>33.22</ele>
        <time>2021-06-06T14:17:19Z</time>
      </trkpt>
      <trkpt lat="43.45053" lon="6.61541">
        <ele>32.8</ele>
        <time>2021-06-06T14:17:34Z</time>
      </trkpt>
      <trkpt lat="43.45051" lon="6.61566">
        <ele>32.46</ele>
        <time>2021-06-06T14:17:49Z</time>
      </trkpt>
      <trkpt lat="43.4505" lon="6.61593">
        <ele>32.1</ele>
        <time>2021-06-06T14:18:10Z</time>
      </trkpt>
      <trkpt lat="43.45057" lon="6.61616">
        <ele>31.8</ele>
        <time>2021-06-06T14:18:30Z</time>
      </trkpt>
      <trkpt lat="43.45071" lon="6.61634">
        <ele>31.57</ele>
        <time>2021-06-06T14:18:47Z</time>
      </trkpt>
      <trkpt lat="43.45076" lon="6.61658">
        <ele>31.37</ele>
        <time>2021-06-06T14:19:04Z</time>
      </trkpt>
      <trkpt lat="43.45083" lon="6.61681">
        <ele>31.1</ele>
        <time>2021-06-06T14:19:28Z</time>
      </trkpt>
    </trkseg>
  </trk>
</gpx>